createdAt,value
2023-01-17T00:01:35.491Z,62.83
2023-01-17T00:04:54.095Z,63.12
2023-01-17T00:08:15.614Z,62.39
2023-01-17T00:11:21.694Z,62.74
2023-01-17T00:14:31.039Z,63.00
2023-01-17T00:17:36.956Z,62.72
2023-01-17T00:20:55.963Z,62.73
2023-01-17T00:24:14.340Z,62.31
2023-01-17T00:27:18.011Z,62.22
2023-01-17T00:30:24.502Z,62.07
2023-01-17T00:33:29.189Z,61.83
2023-01-17T00:36:32.149Z,61.81
2023-01-17T00:39:35.865Z,61.63
2023-01-17T00:42:38.806Z,61.57
2023-01-17T00:46:02.647Z,62.13
2023-01-17T00:49:22.040Z,61.78
2023-01-17T00:52:40.922Z,62.09
2023-01-17T00:55:59.033Z,61.51
2023-01-17T00:59:17.974Z,61.63
2023-01-17T01:02:40.255Z,61.63
2023-01-17T01:05:59.205Z,60.84
2023-01-17T01:09:17.370Z,60.08
2023-01-17T01:12:36.351Z,60.74
2023-01-17T01:15:54.583Z,61.09
2023-01-17T01:19:16.224Z,60.00
2023-01-17T01:22:34.620Z,60.37
2023-01-17T01:25:53.605Z,61.22
2023-01-17T01:29:11.820Z,60.87
2023-01-17T01:32:30.730Z,61.29
2023-01-17T01:35:42.059Z,60.97
2023-01-17T01:38:50.449Z,61.99
2023-01-17T01:41:56.377Z,60.89
2023-01-17T01:45:02.880Z,61.19
2023-01-17T01:48:26.410Z,61.05
2023-01-17T01:51:44.625Z,61.21
2023-01-17T01:55:00.620Z,61.79
2023-01-17T01:58:16.449Z,61.25
2023-01-17T02:01:22.829Z,60.85
2023-01-17T02:04:32.262Z,60.51
2023-01-17T02:07:53.930Z,60.89
2023-01-17T02:11:00.489Z,60.75
2023-01-17T02:14:06.483Z,60.94
2023-01-17T02:17:33.114Z,60.81
2023-01-17T02:21:09.094Z,61.05
2023-01-17T02:25:05.674Z,61.19
2023-01-17T02:28:45.398Z,60.80
2023-01-17T02:32:05.936Z,60.54
2023-01-17T02:35:25.771Z,60.54
2023-01-17T02:38:47.324Z,60.97
2023-01-17T02:42:03.306Z,60.56
2023-01-17T02:45:11.993Z,60.76
2023-01-17T02:48:31.252Z,61.34
2023-01-17T02:52:06.252Z,60.67
2023-01-17T02:55:34.267Z,61.28
2023-01-17T02:59:17.593Z,61.59
2023-01-17T03:02:43.585Z,61.04
2023-01-17T03:06:03.793Z,61.10
2023-01-17T03:09:12.049Z,61.25
2023-01-17T03:12:18.964Z,61.26
2023-01-17T03:15:25.239Z,61.37
2023-01-17T03:18:32.918Z,61.72
2023-01-17T03:21:41.435Z,61.54
2023-01-17T03:24:48.245Z,62.07
2023-01-17T03:27:54.307Z,61.83
2023-01-17T03:31:00.942Z,62.10
2023-01-17T03:34:07.088Z,62.71
2023-01-17T03:37:16.528Z,62.00
2023-01-17T03:40:22.659Z,62.56
2023-01-17T03:43:29.238Z,61.81
2023-01-17T03:46:36.551Z,62.12
2023-01-17T03:49:43.603Z,62.60
2023-01-17T03:52:52.014Z,62.45
2023-01-17T03:55:58.898Z,62.71
2023-01-17T03:59:05.232Z,62.63
2023-01-17T04:02:12.010Z,61.84
2023-01-17T04:05:18.185Z,62.31
2023-01-17T04:08:28.503Z,62.41
2023-01-17T04:11:34.427Z,61.79
2023-01-17T04:14:41.336Z,62.03
2023-01-17T04:17:47.708Z,61.47
2023-01-17T04:20:56.527Z,61.57
2023-01-17T04:24:04.976Z,61.69
2023-01-17T04:27:14.417Z,60.93
2023-01-17T04:30:20.464Z,60.67
2023-01-17T04:33:27.138Z,60.78
2023-01-17T04:36:33.115Z,60.46
2023-01-17T04:39:42.842Z,59.96
2023-01-17T04:42:49.008Z,60.17
2023-01-17T04:45:58.992Z,60.02
2023-01-17T04:49:04.968Z,59.91
2023-01-17T04:52:11.900Z,59.75
2023-01-17T04:55:20.742Z,59.72
2023-01-17T04:58:28.069Z,59.76
2023-01-17T05:01:34.599Z,59.58
2023-01-17T05:04:42.011Z,59.95
2023-01-17T05:07:47.890Z,59.15
2023-01-17T05:10:57.395Z,59.55
2023-01-17T05:14:03.324Z,58.77
2023-01-17T05:17:11.386Z,59.52
2023-01-17T05:20:17.431Z,59.84
2023-01-17T05:23:25.375Z,59.63
2023-01-17T05:26:33.819Z,60.70
2023-01-17T05:29:40.756Z,60.19
2023-01-17T05:32:52.327Z,59.66
2023-01-17T05:35:59.128Z,59.78
2023-01-17T05:39:05.013Z,60.28
2023-01-17T05:42:14.297Z,59.65
2023-01-17T05:45:22.759Z,59.31
2023-01-17T05:48:29.342Z,59.33
2023-01-17T05:51:37.905Z,58.99
2023-01-17T05:54:44.475Z,59.61
2023-01-17T05:57:53.177Z,60.15
2023-01-17T06:00:59.904Z,59.51
2023-01-17T06:04:05.801Z,59.65
2023-01-17T06:07:12.398Z,60.30
2023-01-17T06:10:21.210Z,60.06
2023-01-17T06:13:30.395Z,59.76
2023-01-17T06:16:36.395Z,60.15
2023-01-17T06:19:43.001Z,60.27
2023-01-17T06:22:49.180Z,60.03
2023-01-17T06:25:56.424Z,59.91
2023-01-17T06:29:05.021Z,59.57
2023-01-17T06:32:13.421Z,59.67
2023-01-17T06:35:19.827Z,60.21
2023-01-17T06:38:27.449Z,59.91
2023-01-17T06:41:33.655Z,59.72
2023-01-17T06:44:43.194Z,59.38
2023-01-17T06:47:49.376Z,59.09
2023-01-17T06:50:56.162Z,59.30
2023-01-17T06:54:02.230Z,59.20
2023-01-17T06:57:08.722Z,59.33
2023-01-17T07:00:19.371Z,59.44
2023-01-17T07:03:29.816Z,60.03
2023-01-17T07:06:35.715Z,59.89
2023-01-17T07:09:55.271Z,59.53
2023-01-17T07:13:04.309Z,60.31
2023-01-17T07:16:13.879Z,60.29
2023-01-17T07:19:19.851Z,59.99
2023-01-17T07:22:26.919Z,59.97
2023-01-17T07:29:31.334Z,59.53
2023-01-17T07:36:32.815Z,60.07
2023-01-17T07:43:29.790Z,61.16
2023-01-17T07:46:36.683Z,61.10
2023-01-17T07:49:43.178Z,61.32
2023-01-17T07:52:56.579Z,61.20
2023-01-17T07:56:07.638Z,61.24
2023-01-17T07:59:14.791Z,61.09
2023-01-17T08:02:25.222Z,60.95
2023-01-17T08:09:37.358Z,61.39
2023-01-17T08:12:44.647Z,61.19
2023-01-17T08:15:52.322Z,60.87
2023-01-17T08:19:00.327Z,60.82
2023-01-17T08:22:08.732Z,60.77
2023-01-17T08:25:18.823Z,60.66
2023-01-17T08:28:31.211Z,60.59
2023-01-17T08:31:39.787Z,60.38
2023-01-17T08:34:46.810Z,60.47
2023-01-17T08:38:00.115Z,60.33
2023-01-17T08:41:09.204Z,60.09
2023-01-17T08:44:20.461Z,59.77
2023-01-17T08:47:28.190Z,59.83
2023-01-17T08:50:34.959Z,59.26
2023-01-17T08:53:42.806Z,59.23
2023-01-17T08:56:52.998Z,58.85
2023-01-17T08:59:59.306Z,59.64
2023-01-17T09:03:13.269Z,59.12
2023-01-17T09:06:20.742Z,58.64
2023-01-17T09:09:27.537Z,58.62
2023-01-17T09:12:39.093Z,58.55
2023-01-17T09:15:45.724Z,58.20
2023-01-17T09:18:51.612Z,57.79
2023-01-17T09:21:58.256Z,57.76
2023-01-17T09:25:04.172Z,58.03
2023-01-17T09:28:13.714Z,58.02
2023-01-17T09:31:21.518Z,57.71
2023-01-17T09:34:28.110Z,57.98
2023-01-17T09:37:33.919Z,57.48
2023-01-17T09:40:47.332Z,57.66
2023-01-17T09:44:05.938Z,57.69
2023-01-17T09:47:31.443Z,56.76
2023-01-17T09:50:49.506Z,56.94
2023-01-17T09:53:58.393Z,56.96
2023-01-17T09:57:18.524Z,56.98
2023-01-17T10:00:55.494Z,56.31
2023-01-17T10:04:29.280Z,55.60
2023-01-17T10:07:57.516Z,55.77
2023-01-17T10:11:34.060Z,54.05
2023-01-17T10:15:03.162Z,53.60
2023-01-17T10:18:57.211Z,52.83
2023-01-17T10:22:36.441Z,52.99
2023-01-17T10:25:50.722Z,52.90
2023-01-17T10:29:05.529Z,53.04
2023-01-17T10:32:17.612Z,51.13
2023-01-17T10:35:36.274Z,50.21
2023-01-17T10:38:44.223Z,48.34
2023-01-17T10:41:58.970Z,46.58
2023-01-17T10:45:18.653Z,45.86
2023-01-17T10:48:43.056Z,45.46
2023-01-17T10:52:08.649Z,44.46
2023-01-17T10:55:40.278Z,44.15
2023-01-17T10:58:48.304Z,44.00
2023-01-17T11:01:55.128Z,43.86
2023-01-17T11:05:17.942Z,41.39
2023-01-17T11:08:27.112Z,39.83
2023-01-17T11:11:38.225Z,39.36
2023-01-17T11:15:02.800Z,36.16
2023-01-17T11:18:19.119Z,35.96
2023-01-17T11:21:28.521Z,34.56
2023-01-17T11:24:45.426Z,34.62
2023-01-17T11:28:04.398Z,34.66
2023-01-17T11:31:29.839Z,34.47
2023-01-17T11:34:36.679Z,32.61
2023-01-17T11:37:49.956Z,32.57
2023-01-17T11:41:19.262Z,31.49
2023-01-17T11:44:29.703Z,31.53
2023-01-17T11:47:36.385Z,31.37
2023-01-17T11:50:47.371Z,30.58
2023-01-17T11:53:55.972Z,28.95
2023-01-17T11:57:05.815Z,29.51
2023-01-17T12:00:27.866Z,29.20
2023-01-17T12:04:02.656Z,28.94
2023-01-17T12:07:27.580Z,29.61
2023-01-17T12:10:49.479Z,29.49
2023-01-17T12:14:19.526Z,29.65
2023-01-17T12:17:57.441Z,29.34
2023-01-17T12:21:22.996Z,29.36
2023-01-17T12:25:04.182Z,30.63
2023-01-17T12:28:52.358Z,30.96
2023-01-17T12:32:30.505Z,32.91
2023-01-17T12:35:48.331Z,34.12
2023-01-17T12:38:56.723Z,35.88
2023-01-17T12:42:15.986Z,35.85
2023-01-17T12:45:32.687Z,37.05
2023-01-17T12:48:42.305Z,38.45
2023-01-17T12:51:55.987Z,38.29
2023-01-17T12:55:13.833Z,39.06
2023-01-17T12:58:35.047Z,39.05
2023-01-17T13:01:43.395Z,39.38
2023-01-17T13:05:03.179Z,40.18
2023-01-17T13:08:28.198Z,39.83
2023-01-17T13:11:46.728Z,40.65
2023-01-17T13:14:53.871Z,40.48
2023-01-17T13:18:13.491Z,40.35
2023-01-17T13:21:35.460Z,41.10
2023-01-17T13:24:55.560Z,40.67
2023-01-17T13:28:33.350Z,40.34
2023-01-17T13:31:51.839Z,39.59
2023-01-17T13:35:22.211Z,40.13
2023-01-17T13:39:16.119Z,39.81
2023-01-17T13:42:43.690Z,39.65
2023-01-17T13:45:57.793Z,39.95
2023-01-17T13:49:36.349Z,41.18
2023-01-17T13:52:42.329Z,42.00
2023-01-17T13:55:55.811Z,42.55
2023-01-17T13:59:36.081Z,42.87
2023-01-17T14:02:42.828Z,42.53
2023-01-17T14:06:00.137Z,43.55
2023-01-17T14:09:19.888Z,43.45
2023-01-17T14:12:36.231Z,42.62
2023-01-17T14:15:53.901Z,43.29
2023-01-17T14:19:00.293Z,43.13
2023-01-17T14:22:28.496Z,43.10
2023-01-17T14:25:44.014Z,44.53
2023-01-17T14:28:55.430Z,43.33
2023-01-17T14:32:11.829Z,43.34
2023-01-17T14:35:26.610Z,43.71
2023-01-17T14:38:43.928Z,43.96
2023-01-17T14:41:50.736Z,44.00
2023-01-17T14:45:07.181Z,44.08
2023-01-17T14:48:21.739Z,43.91
2023-01-17T14:51:28.400Z,44.57
2023-01-17T14:54:37.044Z,44.36
2023-01-17T14:57:45.980Z,44.71
2023-01-17T15:01:01.839Z,44.75
2023-01-17T15:04:07.940Z,45.20
2023-01-17T15:07:20.586Z,45.35
2023-01-17T15:10:33.286Z,45.73
2023-01-17T15:13:45.977Z,46.48
2023-01-17T15:16:54.496Z,46.40
2023-01-17T15:20:11.419Z,46.03
2023-01-17T15:23:23.235Z,45.81
2023-01-17T15:26:36.113Z,46.24
2023-01-17T15:29:44.803Z,47.11
2023-01-17T15:32:55.055Z,47.36
2023-01-17T15:36:07.176Z,47.92
2023-01-17T15:39:27.102Z,47.94
2023-01-17T15:42:37.164Z,48.20
2023-01-17T15:45:44.079Z,48.66
2023-01-17T15:48:53.432Z,48.84
2023-01-17T15:52:18.442Z,49.09
2023-01-17T15:55:29.004Z,49.48
2023-01-17T15:58:35.567Z,49.80
2023-01-17T16:01:41.589Z,48.94
2023-01-17T16:04:50.860Z,49.26
2023-01-17T16:08:00.366Z,48.71
2023-01-17T16:11:09.589Z,48.74
2023-01-17T16:14:15.336Z,49.38
2023-01-17T16:17:22.404Z,49.27
2023-01-17T16:20:39.865Z,49.56
2023-01-17T16:23:46.465Z,48.85
2023-01-17T16:26:52.287Z,48.66
2023-01-17T16:29:59.462Z,49.31
2023-01-17T16:33:07.599Z,49.53
2023-01-17T16:36:20.951Z,49.93
2023-01-17T16:39:27.481Z,50.43
2023-01-17T16:42:34.374Z,50.72
2023-01-17T16:45:45.208Z,50.48
2023-01-17T16:48:51.991Z,50.69
2023-01-17T16:52:00.418Z,50.63
2023-01-17T16:55:08.291Z,51.08
2023-01-17T16:58:15.429Z,51.03
2023-01-17T17:05:14.194Z,51.08
2023-01-17T17:08:23.359Z,51.58
2023-01-17T17:15:21.731Z,51.47
2023-01-17T17:18:28.456Z,51.94
2023-01-17T17:21:39.753Z,52.34
2023-01-17T17:28:55.502Z,52.84
2023-01-17T17:32:02.040Z,52.77
2023-01-17T17:35:20.405Z,52.46
2023-01-17T17:46:14.009Z,52.99
2023-01-17T17:49:23.096Z,52.90
2023-01-17T17:52:32.481Z,52.49
2023-01-17T17:55:51.987Z,52.92
2023-01-17T17:58:59.578Z,52.94
2023-01-17T18:02:11.256Z,52.73
2023-01-17T18:29:55.938Z,52.94
2023-01-17T18:33:02.560Z,53.52
2023-01-17T18:36:10.349Z,53.43
2023-01-17T18:39:20.551Z,53.37
2023-01-17T18:42:27.628Z,53.54
2023-01-17T18:45:36.993Z,53.12
2023-01-17T18:48:43.881Z,53.14
2023-01-17T18:51:51.986Z,53.66
2023-01-17T18:54:58.126Z,53.45
2023-01-17T18:58:06.009Z,53.86
2023-01-17T19:01:19.993Z,53.64
2023-01-17T19:04:28.578Z,53.14
2023-01-17T19:07:34.527Z,52.37
2023-01-17T19:10:41.258Z,52.67
2023-01-17T19:13:50.451Z,53.02
2023-01-17T19:17:01.518Z,53.00
2023-01-17T19:20:09.154Z,52.51
2023-01-17T19:23:17.153Z,52.90
2023-01-17T19:26:25.223Z,53.52
2023-01-17T19:29:31.977Z,52.73
2023-01-17T19:32:40.414Z,52.42
2023-01-17T19:35:47.278Z,52.58
2023-01-17T19:39:05.585Z,52.65
2023-01-17T19:42:15.691Z,52.60
2023-01-17T19:45:21.894Z,52.64
2023-01-17T19:48:31.847Z,52.59
2023-01-17T19:51:39.450Z,52.76
2023-01-17T19:54:46.088Z,52.51
2023-01-17T19:57:52.084Z,51.85
2023-01-17T20:01:09.968Z,51.46
2023-01-17T20:04:19.441Z,51.79
2023-01-17T20:07:26.415Z,51.31
2023-01-17T20:10:32.688Z,51.26
2023-01-17T20:13:40.347Z,51.31
2023-01-17T20:16:48.844Z,51.28
2023-01-17T20:19:59.361Z,51.02
2023-01-17T20:23:06.497Z,51.03
2023-01-17T20:26:17.733Z,51.19
2023-01-17T20:29:26.005Z,51.46
2023-01-17T20:32:32.703Z,51.54
2023-01-17T20:35:41.124Z,51.71
2023-01-17T20:38:50.001Z,51.86
2023-01-17T20:41:56.141Z,51.24
2023-01-17T20:45:03.275Z,51.26
2023-01-17T20:48:09.606Z,51.43
2023-01-17T20:51:20.465Z,51.07
2023-01-17T20:54:26.807Z,51.21
2023-01-17T20:57:34.561Z,52.07
2023-01-17T21:00:40.535Z,51.96
2023-01-17T21:03:48.046Z,51.64
2023-01-17T21:06:57.650Z,51.76
2023-01-17T21:10:04.283Z,52.35
2023-01-17T21:13:10.201Z,52.01
2023-01-17T21:16:20.493Z,52.17
2023-01-17T21:19:26.457Z,52.02
2023-01-17T21:22:35.747Z,52.58
2023-01-17T21:25:43.460Z,52.35
2023-01-17T21:28:52.585Z,52.16
2023-01-17T21:31:58.903Z,52.52
2023-01-17T21:35:05.558Z,52.33
2023-01-17T21:38:14.038Z,52.38
2023-01-17T21:41:21.393Z,51.87
2023-01-17T21:44:27.580Z,52.14
2023-01-17T21:47:35.599Z,52.39
2023-01-17T21:50:42.143Z,52.27
2023-01-17T21:53:51.799Z,51.82
2023-01-17T21:57:21.723Z,51.74
2023-01-17T22:00:28.305Z,52.08
2023-01-17T22:03:34.244Z,52.22
2023-01-17T22:06:41.254Z,52.03
2023-01-17T22:09:49.638Z,51.79
2023-01-17T22:12:56.598Z,51.60
2023-01-17T22:16:05.499Z,51.79
2023-01-17T22:19:12.283Z,52.45
2023-01-17T22:22:18.155Z,52.74
2023-01-17T22:25:27.475Z,52.40
2023-01-17T22:28:34.656Z,52.70
2023-01-17T22:31:41.438Z,52.45
2023-01-17T22:34:47.294Z,52.18
2023-01-17T22:37:56.718Z,52.13
2023-01-17T22:41:13.218Z,52.32
2023-01-17T22:44:19.756Z,51.56
2023-01-17T22:47:25.674Z,52.84
2023-01-17T22:50:32.254Z,52.54
2023-01-17T22:53:42.347Z,52.85
2023-01-17T22:56:51.671Z,52.23
2023-01-17T22:59:58.231Z,52.03
2023-01-17T23:03:06.467Z,52.00
2023-01-17T23:06:16.876Z,52.16
2023-01-17T23:09:24.322Z,52.39
2023-01-17T23:12:32.788Z,52.58
2023-01-17T23:15:53.527Z,52.38
2023-01-17T23:19:11.724Z,52.98
2023-01-17T23:22:24.300Z,53.61
2023-01-17T23:25:30.082Z,53.97
2023-01-17T23:28:36.717Z,54.25
2023-01-17T23:31:43.755Z,53.91
2023-01-17T23:34:50.683Z,54.08
2023-01-17T23:38:08.982Z,53.82
2023-01-17T23:41:27.977Z,54.72
2023-01-17T23:44:36.404Z,54.07
2023-01-17T23:47:42.994Z,54.55
2023-01-17T23:50:51.378Z,54.62
2023-01-17T23:54:05.496Z,54.61
2023-01-17T23:57:11.606Z,54.35
